Pagrindinis puslapis
METAR-TAF:

METAR-TAF

Oro uostai :

Orhusas, Danija

platuma: 56-18N, ilguma: 010-37E, Aukštis: 23 m

Dabartinis oras

Ataskaita buvo paskelbta 32 minutes, ne 04:50 UTC
Vėjas 12 kt iš Rytų
Temperatūra 15°C
Drėgmė 63%
Slėgis 1013 hPa
Matomumas 10 km arba daugiau

METAR: EKAH 220450Z AUTO 08012KT 9999 NCD 15/08 Q1013

Laikas: 07:22 (05:22 UTC)

Prognozė

Ataskaita buvo paskelbta 6 valandos ir 19 minutes, ne 23:03 UTC
Prognozė galioja nuo 22 metu 00 UTC su 22 metu 24 UTC
Vėjas 8 kt iš Rytų
Matomumas 10 km arba daugiau
nėra debesų žemiau 1500 m ir nėra kamuolinių lietaus debesų
Laikinai
nuo 22 metu 06 UTC su 22 metu 18 UTC
Vėjas 15 kt iš Rytų su gūsio iki 25 kt

TAF: EKAH 212303Z 2200/2224 08008KT CAVOK TEMPO 2206/2218 09015G25KT

Orai ataskaitas ir orų prognozės (METAR, TAF).

turimą stotys yra geltonos ir raudonos taškus žemėlapyje.

Perkelti pele per norėdami pamatyti stoties vardą.

Tada spustelėkite, norėdami matyti oro stebėjimo ir prognozės.

Norėdami pakeisti žemėlapį: spustelėkite ant žalios mygtukų su juodo kryžiaus žemyn,; žalią mygtuką su brūkšneliu, jei norite nutolinti; arba žalių rodyklių gretimoms žemėlapius.


METAR-TAF: